createdAt,value
2023-02-28T00:00:22.792Z,0.60
2023-02-28T00:02:49.499Z,0.60
2023-02-28T00:05:18.882Z,0.60
2023-02-28T00:07:46.381Z,0.60
2023-02-28T00:10:20.108Z,0.60
2023-02-28T00:12:46.863Z,0.60
2023-02-28T00:15:13.509Z,0.60
2023-02-28T00:17:40.155Z,0.70
2023-02-28T00:20:12.731Z,0.60
2023-02-28T00:22:41.705Z,0.60
2023-02-28T00:25:09.604Z,0.70
2023-02-28T00:27:38.067Z,0.70
2023-02-28T00:30:06.725Z,0.70
2023-02-28T00:32:33.601Z,0.70
2023-02-28T00:35:00.197Z,0.70
2023-02-28T00:37:27.045Z,0.70
2023-02-28T00:39:53.654Z,0.80
2023-02-28T00:42:20.349Z,0.80
2023-02-28T00:44:46.910Z,0.80
2023-02-28T00:47:13.626Z,0.80
2023-02-28T00:49:40.299Z,0.80
2023-02-28T00:52:06.971Z,0.80
2023-02-28T00:54:33.703Z,0.90
2023-02-28T00:57:00.822Z,0.90
2023-02-28T00:59:27.428Z,0.80
2023-02-28T01:01:54.193Z,0.80
2023-02-28T01:04:20.849Z,0.90
2023-02-28T01:06:47.542Z,1.00
2023-02-28T01:09:14.119Z,1.00
2023-02-28T01:11:42.769Z,0.90
2023-02-28T01:14:09.668Z,0.90
2023-02-28T01:16:36.305Z,0.90
2023-02-28T01:19:03.156Z,0.90
2023-02-28T01:21:30.877Z,0.80
2023-02-28T01:23:58.943Z,0.80
2023-02-28T01:26:25.642Z,0.80
2023-02-28T01:28:53.485Z,0.70
2023-02-28T01:31:21.552Z,0.70
2023-02-28T01:33:48.540Z,0.80
2023-02-28T01:36:18.735Z,0.80
2023-02-28T01:38:45.834Z,0.60
2023-02-28T01:41:21.431Z,0.70
2023-02-28T01:43:47.982Z,0.80
2023-02-28T01:46:16.124Z,0.80
2023-02-28T01:48:51.901Z,0.90
2023-02-28T01:51:24.722Z,0.90
2023-02-28T01:54:00.233Z,1.00
2023-02-28T01:56:31.434Z,0.90
2023-02-28T01:58:58.117Z,0.90
2023-02-28T02:01:28.493Z,0.90
2023-02-28T02:04:00.758Z,0.90
2023-02-28T02:06:34.841Z,1.00
2023-02-28T02:09:01.619Z,0.90
2023-02-28T02:11:30.714Z,0.90
2023-02-28T02:14:35.237Z,0.90
2023-02-28T02:17:26.203Z,1.00
2023-02-28T02:20:17.449Z,1.00
2023-02-28T02:23:07.084Z,1.10
2023-02-28T02:25:37.197Z,1.10
2023-02-28T02:28:40.537Z,1.10
2023-02-28T02:31:29.466Z,1.20
2023-02-28T02:34:08.884Z,1.20
2023-02-28T02:36:53.110Z,1.20
2023-02-28T02:39:31.681Z,1.20
2023-02-28T02:42:04.542Z,1.20
2023-02-28T02:44:45.389Z,1.20
2023-02-28T02:47:16.689Z,1.20
2023-02-28T02:49:48.351Z,1.20
2023-02-28T02:52:19.210Z,1.20
2023-02-28T02:54:49.126Z,1.20
2023-02-28T02:57:25.220Z,1.30
2023-02-28T02:59:54.609Z,1.20
2023-02-28T03:02:23.264Z,1.10
2023-02-28T03:04:54.564Z,1.10
2023-02-28T03:07:21.213Z,1.00
2023-02-28T03:09:55.442Z,1.10
2023-02-28T03:12:43.959Z,1.00
2023-02-28T03:15:32.947Z,1.00
2023-02-28T03:18:24.325Z,0.80
2023-02-28T03:21:27.791Z,0.80
2023-02-28T03:24:13.582Z,0.90
2023-02-28T03:26:44.645Z,0.90
2023-02-28T03:29:28.436Z,1.00
2023-02-28T03:32:15.607Z,1.00
2023-02-28T03:34:51.664Z,1.00
2023-02-28T03:37:23.485Z,0.90
2023-02-28T03:40:02.032Z,1.00
2023-02-28T03:42:32.762Z,0.90
2023-02-28T03:45:03.137Z,0.90
2023-02-28T03:47:52.688Z,0.80
2023-02-28T03:50:20.956Z,0.80
2023-02-28T03:52:54.370Z,0.90
2023-02-28T03:55:22.152Z,0.80
2023-02-28T03:57:54.536Z,0.80
2023-02-28T04:00:31.284Z,0.80
2023-02-28T04:02:58.248Z,0.70
2023-02-28T04:05:25.647Z,0.70
2023-02-28T04:07:53.674Z,0.80
2023-02-28T04:10:20.758Z,0.80
2023-02-28T04:12:47.420Z,0.80
2023-02-28T04:15:14.138Z,0.80
2023-02-28T04:17:40.745Z,0.80
2023-02-28T04:20:10.384Z,0.80
2023-02-28T04:22:37.771Z,0.80
2023-02-28T04:25:06.519Z,0.70
2023-02-28T04:27:33.290Z,0.60
2023-02-28T04:29:59.954Z,0.70
2023-02-28T04:32:26.899Z,0.60
2023-02-28T04:34:53.725Z,0.60
2023-02-28T04:37:21.038Z,0.50
2023-02-28T04:39:47.694Z,0.50
2023-02-28T04:42:15.407Z,0.50
2023-02-28T04:44:42.389Z,0.30
2023-02-28T04:47:09.028Z,0.40
2023-02-28T04:49:36.076Z,0.50
2023-02-28T04:52:03.030Z,0.50
2023-02-28T04:54:30.095Z,0.50
2023-02-28T04:56:56.880Z,0.40
2023-02-28T04:59:23.731Z,0.40
2023-02-28T05:01:50.957Z,0.50
2023-02-28T05:04:18.602Z,0.50
2023-02-28T05:06:45.281Z,0.50
2023-02-28T05:09:12.529Z,0.50
2023-02-28T05:11:40.380Z,0.50
2023-02-28T05:14:12.470Z,0.40
2023-02-28T05:16:39.134Z,0.40
2023-02-28T05:19:06.008Z,0.50
2023-02-28T05:21:34.030Z,0.40
2023-02-28T05:24:07.405Z,0.40
2023-02-28T05:26:42.972Z,0.50
2023-02-28T05:29:10.153Z,0.50
2023-02-28T05:31:37.231Z,0.50
2023-02-28T05:34:05.123Z,0.50
2023-02-28T05:36:32.113Z,0.50
2023-02-28T05:38:58.773Z,0.50
2023-02-28T05:41:25.647Z,0.50
2023-02-28T05:43:52.485Z,0.50
2023-02-28T05:46:19.320Z,0.50
2023-02-28T05:48:48.328Z,0.50
2023-02-28T05:51:15.431Z,0.50
2023-02-28T05:53:42.021Z,0.50
2023-02-28T05:56:08.673Z,0.50
2023-02-28T05:58:36.307Z,0.50
2023-02-28T06:01:35.621Z,0.60
2023-02-28T06:04:03.423Z,0.60
2023-02-28T06:06:37.449Z,0.60
2023-02-28T06:09:07.376Z,0.60
2023-02-28T06:11:34.389Z,0.60
2023-02-28T06:14:02.622Z,0.60
2023-02-28T06:16:30.655Z,0.60
2023-02-28T06:19:02.122Z,0.60
2023-02-28T06:21:29.965Z,0.60
2023-02-28T06:23:58.450Z,0.50
2023-02-28T06:26:25.738Z,0.50
2023-02-28T06:28:52.441Z,0.60
2023-02-28T06:31:20.063Z,0.60
2023-02-28T06:33:47.478Z,0.60
2023-02-28T06:36:15.994Z,0.50
2023-02-28T06:38:43.700Z,0.50
2023-02-28T06:41:10.630Z,0.40
2023-02-28T06:43:44.025Z,0.50
2023-02-28T06:46:14.503Z,0.40
2023-02-28T06:48:42.016Z,0.30
2023-02-28T06:51:18.325Z,0.40
2023-02-28T06:53:44.997Z,0.40
2023-02-28T06:56:14.690Z,0.30
2023-02-28T06:58:42.074Z,0.40
2023-02-28T07:01:09.517Z,0.40
2023-02-28T07:03:37.071Z,0.40
2023-02-28T07:06:05.058Z,0.50
2023-02-28T07:08:32.729Z,0.40
2023-02-28T07:10:59.729Z,0.50
2023-02-28T07:13:26.649Z,0.50
2023-02-28T07:16:19.877Z,0.40
2023-02-28T07:18:46.741Z,0.40
2023-02-28T07:21:13.440Z,0.40
2023-02-28T07:23:40.726Z,0.40
2023-02-28T07:26:12.220Z,0.40
2023-02-28T07:28:39.176Z,0.40
2023-02-28T07:31:07.146Z,0.40
2023-02-28T07:33:35.152Z,0.40
2023-02-28T07:36:14.934Z,0.40
2023-02-28T07:38:44.483Z,0.50
2023-02-28T07:41:11.970Z,0.50
2023-02-28T07:43:38.911Z,0.40
2023-02-28T07:46:09.434Z,0.40
2023-02-28T07:48:36.294Z,0.30
2023-02-28T07:51:03.401Z,0.40
2023-02-28T07:53:30.666Z,0.40
2023-02-28T07:56:02.066Z,0.40
2023-02-28T07:58:30.016Z,0.50
2023-02-28T08:00:57.281Z,0.50
2023-02-28T08:03:25.229Z,0.60
2023-02-28T08:05:53.515Z,0.60
2023-02-28T08:08:20.298Z,0.50
2023-02-28T08:10:46.940Z,0.50
2023-02-28T08:13:13.610Z,0.60
2023-02-28T08:15:43.095Z,0.60
2023-02-28T08:18:09.794Z,0.60
2023-02-28T08:20:36.447Z,0.60
2023-02-28T08:23:03.078Z,0.70
2023-02-28T08:25:29.691Z,0.80
2023-02-28T08:27:56.239Z,0.80
2023-02-28T08:30:23.039Z,0.90
2023-02-28T08:32:49.675Z,0.90
2023-02-28T08:35:16.288Z,0.90
2023-02-28T08:37:42.905Z,0.90
2023-02-28T08:40:10.481Z,0.90
2023-02-28T08:42:37.194Z,0.90
2023-02-28T08:45:04.157Z,0.90
2023-02-28T08:47:30.749Z,1.00
2023-02-28T08:49:57.415Z,1.00
2023-02-28T08:52:24.198Z,1.00
2023-02-28T08:54:50.775Z,1.10
2023-02-28T08:57:17.389Z,1.20
2023-02-28T08:59:44.045Z,1.20
2023-02-28T09:02:14.352Z,1.30
2023-02-28T09:04:42.459Z,1.30
2023-02-28T09:07:09.157Z,1.30
2023-02-28T09:09:35.933Z,1.20
2023-02-28T09:12:03.007Z,1.20
2023-02-28T09:14:29.635Z,1.20
2023-02-28T09:16:56.457Z,1.20
2023-02-28T09:19:23.380Z,1.30
2023-02-28T09:21:50.097Z,1.30
2023-02-28T09:24:16.676Z,1.20
2023-02-28T09:26:56.567Z,1.30
2023-02-28T09:29:30.323Z,1.20
2023-02-28T09:31:59.766Z,1.30
2023-02-28T09:34:27.823Z,1.40
2023-02-28T09:36:55.692Z,1.30
2023-02-28T09:39:23.837Z,1.20
2023-02-28T09:41:53.337Z,1.30
2023-02-28T09:44:44.896Z,1.20
2023-02-28T09:47:37.297Z,1.20
2023-02-28T09:50:27.041Z,1.20
2023-02-28T09:52:57.547Z,1.30
2023-02-28T09:55:47.168Z,1.30
2023-02-28T09:58:31.453Z,1.40
2023-02-28T10:01:11.759Z,1.50
2023-02-28T10:03:47.773Z,1.40
2023-02-28T10:06:29.198Z,1.30
2023-02-28T10:09:24.574Z,1.40
2023-02-28T10:11:58.887Z,1.40
2023-02-28T10:14:29.074Z,1.60
2023-02-28T10:17:18.185Z,1.70
2023-02-28T10:19:50.719Z,1.60
2023-02-28T10:22:31.281Z,1.50
2023-02-28T10:25:05.084Z,1.50
2023-02-28T10:27:35.297Z,1.50
2023-02-28T10:30:03.578Z,1.60
2023-02-28T10:32:36.097Z,1.50
2023-02-28T10:35:15.401Z,1.60
2023-02-28T10:37:46.960Z,1.70
2023-02-28T10:40:19.781Z,1.80
2023-02-28T10:43:17.673Z,1.90
2023-02-28T10:46:00.187Z,1.90
2023-02-28T10:48:33.578Z,2.00
2023-02-28T10:51:00.865Z,1.90
2023-02-28T10:54:00.145Z,1.90
2023-02-28T10:56:28.978Z,1.90
2023-02-28T10:59:00.959Z,1.90
2023-02-28T11:01:39.552Z,2.00
2023-02-28T11:04:32.831Z,2.00
2023-02-28T11:07:02.190Z,2.10
2023-02-28T11:09:41.536Z,2.00
2023-02-28T11:12:21.795Z,2.00
2023-02-28T11:14:51.867Z,1.90
2023-02-28T11:17:25.146Z,1.80
2023-02-28T11:19:55.036Z,1.90
2023-02-28T11:22:29.636Z,2.00
2023-02-28T11:25:17.417Z,2.00
2023-02-28T11:27:47.965Z,1.90
2023-02-28T11:30:30.742Z,2.00
2023-02-28T11:32:57.653Z,2.00
2023-02-28T11:35:31.982Z,1.90
2023-02-28T11:37:58.718Z,1.90
2023-02-28T11:40:58.374Z,2.00
2023-02-28T11:44:02.778Z,2.10
2023-02-28T11:46:40.327Z,2.00
2023-02-28T11:49:15.629Z,2.00
2023-02-28T11:51:56.718Z,2.00
2023-02-28T11:54:52.554Z,1.90
2023-02-28T11:57:57.281Z,2.00
2023-02-28T12:00:43.811Z,2.10
2023-02-28T12:03:29.257Z,2.00
2023-02-28T12:06:14.520Z,2.10
2023-02-28T12:08:59.763Z,2.10
2023-02-28T12:11:32.897Z,2.20
2023-02-28T12:14:14.771Z,2.20
2023-02-28T12:16:56.474Z,2.20
2023-02-28T12:19:42.703Z,2.30
2023-02-28T12:22:31.146Z,2.20
2023-02-28T12:25:06.630Z,2.30
2023-02-28T12:27:38.064Z,2.30
2023-02-28T12:30:22.838Z,2.40
2023-02-28T12:32:56.335Z,2.50
2023-02-28T12:35:29.105Z,2.40
2023-02-28T12:38:15.595Z,2.40
2023-02-28T12:40:57.611Z,2.40
2023-02-28T12:43:31.031Z,2.30
2023-02-28T12:46:11.491Z,2.40
2023-02-28T12:49:01.258Z,2.40
2023-02-28T12:51:29.508Z,2.50
2023-02-28T12:54:21.300Z,2.60
2023-02-28T12:57:08.991Z,2.60
2023-02-28T13:00:21.455Z,2.70
2023-02-28T13:03:17.893Z,2.80
2023-02-28T13:06:08.989Z,2.80
2023-02-28T13:09:02.352Z,2.80
2023-02-28T13:11:51.978Z,2.80
2023-02-28T13:14:33.996Z,2.90
2023-02-28T13:17:12.555Z,2.90
2023-02-28T13:19:43.786Z,2.80
2023-02-28T13:22:40.075Z,2.90
2023-02-28T13:25:38.986Z,2.80
2023-02-28T13:28:11.440Z,2.80
2023-02-28T13:30:56.722Z,2.80
2023-02-28T13:34:03.277Z,2.80
2023-02-28T13:36:33.291Z,2.90
2023-02-28T13:39:23.901Z,2.70
2023-02-28T13:41:50.686Z,2.80
2023-02-28T13:44:27.385Z,2.70
2023-02-28T13:46:54.038Z,2.60
2023-02-28T13:49:25.682Z,2.60
2023-02-28T13:52:07.679Z,2.70
2023-02-28T13:54:46.558Z,2.60
2023-02-28T13:57:45.939Z,2.60
2023-02-28T14:00:50.152Z,2.40
2023-02-28T14:03:54.026Z,2.40
2023-02-28T14:06:35.292Z,2.30
2023-02-28T14:09:19.765Z,2.30
2023-02-28T14:11:46.998Z,2.30
2023-02-28T14:14:36.588Z,2.30
2023-02-28T14:17:10.665Z,2.10
2023-02-28T14:19:39.297Z,2.20
2023-02-28T14:22:33.222Z,2.30
2023-02-28T14:25:12.535Z,2.30
2023-02-28T14:27:51.202Z,2.30
2023-02-28T14:30:55.294Z,2.30
2023-02-28T14:33:32.684Z,2.40
2023-02-28T14:36:28.840Z,2.50
2023-02-28T14:39:02.683Z,2.60
2023-02-28T14:41:39.405Z,2.30
2023-02-28T14:44:17.183Z,2.30
2023-02-28T14:46:45.628Z,2.10
2023-02-28T14:49:30.485Z,2.00
2023-02-28T14:52:18.282Z,2.20
2023-02-28T14:54:46.222Z,2.20
2023-02-28T14:57:51.102Z,2.00
2023-02-28T15:00:27.507Z,2.10
2023-02-28T15:02:55.351Z,2.00
2023-02-28T15:05:28.777Z,2.00
2023-02-28T15:08:02.836Z,2.00
2023-02-28T15:10:29.908Z,1.90
2023-02-28T15:13:08.185Z,1.90
2023-02-28T15:16:02.796Z,1.90
2023-02-28T15:18:33.252Z,1.90
2023-02-28T15:21:10.418Z,1.80
2023-02-28T15:23:38.035Z,1.80
2023-02-28T15:26:05.686Z,1.80
2023-02-28T15:28:32.733Z,1.80
2023-02-28T15:31:04.921Z,1.80
2023-02-28T15:33:33.840Z,1.80
2023-02-28T15:36:18.648Z,1.80
2023-02-28T15:38:45.302Z,1.60
2023-02-28T15:41:28.534Z,1.70
2023-02-28T15:44:14.659Z,1.80
2023-02-28T15:46:46.110Z,1.60
2023-02-28T15:49:21.437Z,1.70
2023-02-28T15:51:50.517Z,1.50
2023-02-28T15:54:28.428Z,1.60
2023-02-28T15:56:58.340Z,1.60
2023-02-28T15:59:28.673Z,1.60
2023-02-28T16:02:19.529Z,1.60
2023-02-28T16:05:09.222Z,1.60
2023-02-28T16:07:44.515Z,1.50
2023-02-28T16:10:15.189Z,1.50
2023-02-28T16:12:42.330Z,1.50
2023-02-28T16:15:18.690Z,1.50
2023-02-28T16:17:46.010Z,1.40
2023-02-28T16:20:18.107Z,1.40
2023-02-28T16:22:46.452Z,1.40
2023-02-28T16:25:18.361Z,1.40
2023-02-28T16:27:50.352Z,1.40
2023-02-28T16:30:25.294Z,1.40
2023-02-28T16:32:52.994Z,1.30
2023-02-28T16:35:20.834Z,1.40
2023-02-28T16:37:47.582Z,1.50
2023-02-28T16:40:16.989Z,1.30
2023-02-28T16:42:46.320Z,1.40
2023-02-28T16:45:21.404Z,1.40
2023-02-28T16:47:48.461Z,1.30
2023-02-28T16:50:17.471Z,1.30
2023-02-28T16:52:44.194Z,1.20
2023-02-28T16:55:11.586Z,1.20
2023-02-28T16:57:38.976Z,1.20
2023-02-28T17:00:08.876Z,1.10
2023-02-28T17:02:36.355Z,1.20
2023-02-28T17:05:03.390Z,1.10
2023-02-28T17:07:31.540Z,1.20
2023-02-28T17:09:58.219Z,1.20
2023-02-28T17:12:24.880Z,1.30
2023-02-28T17:14:51.524Z,1.30
2023-02-28T17:17:22.627Z,1.30
2023-02-28T17:19:49.782Z,1.30
2023-02-28T17:22:16.468Z,1.30
2023-02-28T17:24:43.405Z,1.30
2023-02-28T17:27:13.758Z,1.50
2023-02-28T17:29:40.761Z,1.40
2023-02-28T17:32:17.194Z,1.40
2023-02-28T17:34:45.279Z,1.40
2023-02-28T17:37:12.012Z,1.50
2023-02-28T17:39:38.666Z,1.50
2023-02-28T17:42:05.402Z,1.40
2023-02-28T17:44:32.124Z,1.40
2023-02-28T17:47:00.438Z,1.30
2023-02-28T17:49:28.009Z,1.30
2023-02-28T17:51:54.586Z,1.40
2023-02-28T17:54:21.163Z,1.30
2023-02-28T17:56:47.763Z,1.30
2023-02-28T17:59:14.985Z,1.30
2023-02-28T18:01:41.604Z,1.20
2023-02-28T18:04:08.359Z,1.30
2023-02-28T18:06:46.945Z,1.30
2023-02-28T18:09:15.219Z,1.30
2023-02-28T18:11:49.982Z,1.40
2023-02-28T18:14:17.867Z,1.30
2023-02-28T18:16:45.800Z,1.30
2023-02-28T18:19:17.266Z,1.30
2023-02-28T18:21:46.037Z,1.20
2023-02-28T18:24:13.506Z,1.10
2023-02-28T18:26:40.619Z,1.30
2023-02-28T18:29:08.188Z,1.40
2023-02-28T18:31:35.379Z,1.50
2023-02-28T18:34:02.081Z,1.50
2023-02-28T18:36:29.327Z,1.50
2023-02-28T18:38:56.206Z,1.50
2023-02-28T18:41:23.237Z,1.50
2023-02-28T18:43:52.113Z,1.50
2023-02-28T18:46:20.335Z,1.50
2023-02-28T18:48:47.713Z,1.40
2023-02-28T18:51:23.737Z,1.40
2023-02-28T18:53:50.893Z,1.40
2023-02-28T18:56:20.315Z,1.40
2023-02-28T18:58:47.317Z,1.50
2023-02-28T19:01:22.732Z,1.50
2023-02-28T19:03:50.780Z,1.50
2023-02-28T19:06:18.992Z,1.40
2023-02-28T19:08:45.966Z,1.50
2023-02-28T19:11:16.015Z,1.50
2023-02-28T19:13:43.810Z,1.50
2023-02-28T19:16:15.879Z,1.50
2023-02-28T19:18:42.904Z,1.60
2023-02-28T19:21:11.486Z,1.60
2023-02-28T19:23:39.443Z,1.60
2023-02-28T19:26:07.658Z,1.60
2023-02-28T19:28:34.635Z,1.70
2023-02-28T19:31:01.476Z,1.80
2023-02-28T19:33:28.214Z,1.70
2023-02-28T19:36:00.260Z,1.80
2023-02-28T19:38:26.951Z,1.70
2023-02-28T19:41:14.908Z,1.80
2023-02-28T19:43:41.955Z,1.80
2023-02-28T19:46:09.829Z,1.80
2023-02-28T19:48:37.142Z,1.80
2023-02-28T19:51:12.413Z,1.90
2023-02-28T19:53:40.851Z,1.80
2023-02-28T19:56:08.496Z,1.80
2023-02-28T19:58:35.558Z,1.80
2023-02-28T20:01:16.831Z,1.70
2023-02-28T20:03:48.318Z,1.80
2023-02-28T20:06:15.162Z,1.80
2023-02-28T20:08:42.381Z,1.80
2023-02-28T20:11:12.517Z,1.80
2023-02-28T20:13:39.391Z,1.80
2023-02-28T20:16:09.585Z,1.90
2023-02-28T20:18:37.817Z,1.90
2023-02-28T20:21:05.061Z,1.90
2023-02-28T20:23:32.026Z,1.90
2023-02-28T20:26:00.482Z,2.00
2023-02-28T20:28:27.399Z,2.00
2023-02-28T20:30:54.247Z,2.00
2023-02-28T20:33:20.965Z,2.00
2023-02-28T20:35:49.140Z,2.10
2023-02-28T20:38:15.772Z,2.30
2023-02-28T20:40:42.376Z,2.10
2023-02-28T20:43:09.070Z,2.10
2023-02-28T20:45:35.827Z,2.10
2023-02-28T20:48:02.529Z,2.20
2023-02-28T20:50:29.143Z,2.20
2023-02-28T20:52:56.515Z,2.20
2023-02-28T20:55:23.321Z,2.20
2023-02-28T20:57:50.630Z,2.20
2023-02-28T21:00:18.298Z,2.20
2023-02-28T21:02:45.263Z,2.10
2023-02-28T21:05:11.854Z,2.10
2023-02-28T21:07:38.451Z,2.20
2023-02-28T21:10:05.476Z,2.20
2023-02-28T21:12:32.595Z,2.20
2023-02-28T21:14:59.230Z,2.20
2023-02-28T21:17:25.836Z,2.20
2023-02-28T21:19:52.409Z,2.10
2023-02-28T21:22:19.060Z,2.00
2023-02-28T21:24:45.977Z,1.90
2023-02-28T21:27:12.593Z,1.90
2023-02-28T21:29:39.286Z,1.90
2023-02-28T21:32:07.815Z,1.80
2023-02-28T21:34:34.521Z,1.70
2023-02-28T21:37:01.094Z,1.80
2023-02-28T21:39:30.187Z,1.80
2023-02-28T21:42:03.767Z,1.80
2023-02-28T21:44:32.775Z,1.80
2023-02-28T21:47:02.548Z,1.80
2023-02-28T21:49:29.603Z,1.80
2023-02-28T21:51:57.906Z,1.80
2023-02-28T21:54:25.327Z,1.80
2023-02-28T21:56:52.308Z,1.80
2023-02-28T21:59:19.685Z,1.80
2023-02-28T22:01:46.688Z,1.70
2023-02-28T22:04:22.405Z,1.70
2023-02-28T22:06:52.533Z,1.70
2023-02-28T22:09:19.579Z,1.70
2023-02-28T22:11:46.264Z,1.60
2023-02-28T22:14:12.978Z,1.60
2023-02-28T22:16:51.425Z,1.70
2023-02-28T22:19:20.494Z,1.60
2023-02-28T22:21:47.664Z,1.80
2023-02-28T22:24:17.421Z,1.80
2023-02-28T22:26:44.117Z,1.80
2023-02-28T22:29:10.684Z,1.90
2023-02-28T22:31:37.613Z,1.90
2023-02-28T22:34:08.712Z,2.00
2023-02-28T22:36:36.215Z,2.10
2023-02-28T22:39:04.055Z,2.10
2023-02-28T22:41:30.800Z,2.00
2023-02-28T22:43:59.930Z,2.00
2023-02-28T22:46:28.546Z,2.00
2023-02-28T22:48:55.779Z,2.00
2023-02-28T22:51:25.415Z,1.90
2023-02-28T22:53:53.725Z,1.90
2023-02-28T22:56:22.461Z,1.80
2023-02-28T22:58:51.223Z,1.80
2023-02-28T23:01:20.553Z,1.90
2023-02-28T23:03:47.473Z,1.80
2023-02-28T23:06:20.881Z,1.80
2023-02-28T23:08:47.940Z,1.80
2023-02-28T23:11:21.300Z,1.80
2023-02-28T23:13:58.277Z,1.90
2023-02-28T23:16:31.557Z,1.90
2023-02-28T23:19:00.139Z,1.80
2023-02-28T23:21:27.450Z,1.90
2023-02-28T23:23:54.700Z,1.90
2023-02-28T23:26:22.944Z,1.70
2023-02-28T23:28:49.694Z,1.70
2023-02-28T23:31:16.463Z,1.60
2023-02-28T23:33:43.167Z,1.60
2023-02-28T23:36:12.687Z,1.80
2023-02-28T23:38:40.342Z,1.80
2023-02-28T23:41:08.865Z,1.70
2023-02-28T23:43:36.335Z,1.70
2023-02-28T23:46:03.550Z,1.70
2023-02-28T23:48:30.517Z,1.70
2023-02-28T23:51:01.598Z,1.70
2023-02-28T23:53:33.744Z,1.60
2023-02-28T23:56:01.432Z,1.70
2023-02-28T23:58:29.631Z,1.70
